Time,TemperatureF,DewpointF,PressureIn,WindDirection,WindDirectionDegrees,WindSpeedMPH,WindSpeedGustMPH,Humidity,HourlyPrecipIn,Conditions,Clouds,dailyrainin,SoftwareType,DateUTC
2013-01-14 00:00:00,41.8,40.4,29.75,North,0,0.0,0.0,95,0.00,,,0.00,WUHU216HW,2013-01-14 05:00:00,
2013-01-14 00:02:00,41.4,40.1,29.75,North,0,0.0,0.0,95,0.00,,,0.00,WUHU216HW,2013-01-14 05:02:00,
2013-01-14 00:03:00,41.2,39.9,29.74,North,0,0.0,0.0,95,0.00,,,0.00,WUHU216HW,2013-01-14 05:03:00,
2013-01-14 00:08:00,41.0,39.7,29.74,North,0,0.0,0.0,95,0.00,,,0.00,WUHU216HW,2013-01-14 05:08:00,
2013-01-14 00:13:00,41.0,39.7,29.75,North,0,0.0,0.0,95,0.00,,,0.00,WUHU216HW,2013-01-14 05:13:00,
2013-01-14 00:18:00,41.0,39.7,29.75,North,0,0.0,0.0,95,0.00,,,0.00,WUHU216HW,2013-01-14 05:18:00,
2013-01-14 00:23:00,41.0,39.7,29.74,North,0,0.0,0.0,95,0.00,,,0.00,WUHU216HW,2013-01-14 05:23:00,
2013-01-14 00:28:00,40.9,39.5,29.74,North,0,0.0,0.0,95,0.00,,,0.00,WUHU216HW,2013-01-14 05:28:00,
2013-01-14 00:33:00,40.7,39.3,29.73,North,0,0.0,0.0,95,0.00,,,0.00,WUHU216HW,2013-01-14 05:33:00,
2013-01-14 00:38:00,40.7,39.3,29.73,North,0,0.0,0.0,95,0.00,,,0.00,WUHU216HW,2013-01-14 05:38:00,
2013-01-14 01:00:00,40.0,38.3,29.73,North,0,0.0,0.0,94,0.00,,,0.00,WUHU216HW,2013-01-14 06:00:00,
2013-01-14 01:05:00,40.0,38.3,29.73,North,0,0.0,0.0,94,0.00,,,0.00,WUHU216HW,2013-01-14 06:05:00,
2013-01-14 01:10:00,39.8,38.2,29.73,North,0,0.0,0.0,94,0.00,,,0.00,WUHU216HW,2013-01-14 06:10:00,
2013-01-14 01:15:00,39.6,38.0,29.74,North,0,0.0,0.0,94,0.00,,,0.00,WUHU216HW,2013-01-14 06:15:00,
2013-01-14 01:20:00,39.1,37.4,29.74,North,0,0.0,0.0,94,0.00,,,0.00,WUHU216HW,2013-01-14 06:20:00,
2013-01-14 01:25:00,38.7,37.1,29.73,North,0,0.0,0.0,94,0.00,,,0.00,WUHU216HW,2013-01-14 06:25:00,
2013-01-14 01:30:00,38.5,36.9,29.74,North,0,0.0,0.0,94,0.00,,,0.00,WUHU216HW,2013-01-14 06:30:00,
2013-01-14 01:35:00,38.5,36.9,29.74,North,0,0.0,0.0,94,0.00,,,0.00,WUHU216HW,2013-01-14 06:35:00,
2013-01-14 01:40:00,38.5,36.9,29.74,North,0,0.0,0.0,94,0.00,,,0.00,WUHU216HW,2013-01-14 06:40:00,
2013-01-14 02:00:00,38.7,37.1,29.74,North,0,0.0,0.0,94,0.00,,,0.00,WUHU216HW,2013-01-14 07:00:00,
2013-01-14 02:05:00,39.2,37.6,29.73,North,0,0.0,0.0,94,0.00,,,0.00,WUHU216HW,2013-01-14 07:05:00,
2013-01-14 02:10:00,39.4,37.8,29.73,North,0,0.0,0.0,94,0.00,,,0.00,WUHU216HW,2013-01-14 07:10:00,
2013-01-14 02:15:00,39.6,38.0,29.73,North,0,0.0,0.0,94,0.00,,,0.00,WUHU216HW,2013-01-14 07:15:00,
2013-01-14 02:20:00,39.6,38.0,29.73,North,0,0.0,0.0,94,0.00,,,0.00,WUHU216HW,2013-01-14 07:20:00,
2013-01-14 02:25:00,39.6,38.0,29.73,North,0,0.0,0.0,94,0.00,,,0.00,WUHU216HW,2013-01-14 07:25:00,
2013-01-14 02:30:00,39.6,38.0,29.73,North,0,0.0,0.0,94,0.00,,,0.00,WUHU216HW,2013-01-14 07:30:00,
2013-01-14 02:35:00,39.6,38.0,29.73,North,0,0.0,0.0,94,0.00,,,0.00,WUHU216HW,2013-01-14 07:35:00,
2013-01-14 02:40:00,39.6,38.0,29.73,North,0,0.0,0.0,94,0.00,,,0.00,WUHU216HW,2013-01-14 07:40:00,
2013-01-14 03:00:00,39.1,37.4,29.73,North,0,0.0,0.0,94,0.00,,,0.00,WUHU216HW,2013-01-14 08:00:00,
2013-01-14 03:05:00,38.5,36.9,29.73,North,0,0.0,0.0,94,0.00,,,0.00,WUHU216HW,2013-01-14 08:05:00,
2013-01-14 03:10:00,38.2,36.5,29.72,North,0,0.0,0.0,94,0.00,,,0.00,WUHU216HW,2013-01-14 08:10:00,
2013-01-14 03:15:00,38.0,36.4,29.72,North,0,0.0,0.0,94,0.00,,,0.00,WUHU216HW,2013-01-14 08:15:00,
2013-01-14 03:20:00,38.0,36.4,29.72,North,0,0.0,0.0,94,0.00,,,0.00,WUHU216HW,2013-01-14 08:20:00,
2013-01-14 03:25:00,37.8,36.2,29.72,North,0,0.0,0.0,94,0.00,,,0.00,WUHU216HW,2013-01-14 08:25:00,
2013-01-14 03:30:00,37.8,36.2,29.72,North,0,0.0,0.0,94,0.00,,,0.00,WUHU216HW,2013-01-14 08:30:00,
2013-01-14 03:35:00,37.8,36.2,29.71,North,0,0.0,0.0,94,0.00,,,0.00,WUHU216HW,2013-01-14 08:35:00,
2013-01-14 03:40:00,37.8,36.2,29.71,North,0,0.0,0.0,94,0.00,,,0.00,WUHU216HW,2013-01-14 08:40:00,
2013-01-14 04:00:00,37.6,36.0,29.72,North,0,0.0,0.0,94,0.00,,,0.00,WUHU216HW,2013-01-14 09:00:00,
2013-01-14 04:05:00,37.4,35.8,29.72,North,0,0.0,0.0,94,0.00,,,0.00,WUHU216HW,2013-01-14 09:05:00,
2013-01-14 04:10:00,37.4,35.8,29.71,North,0,0.0,0.0,94,0.00,,,0.00,WUHU216HW,2013-01-14 09:10:00,
2013-01-14 04:15:00,37.6,36.0,29.71,North,0,0.0,0.0,94,0.00,,,0.00,WUHU216HW,2013-01-14 09:15:00,
2013-01-14 04:20:00,37.6,36.0,29.70,North,0,0.0,0.0,94,0.00,,,0.00,WUHU216HW,2013-01-14 09:20:00,
2013-01-14 04:25:00,37.8,36.2,29.71,North,0,0.0,0.0,94,0.00,,,0.00,WUHU216HW,2013-01-14 09:25:00,
2013-01-14 04:30:00,38.2,36.8,29.70,North,0,0.0,0.0,95,0.00,,,0.00,WUHU216HW,2013-01-14 09:30:00,
2013-01-14 04:35:00,38.3,36.7,29.70,North,0,0.0,0.0,94,0.01,,,0.00,WUHU216HW,2013-01-14 09:35:00,
2013-01-14 04:40:00,38.3,36.7,29.70,North,0,0.0,0.0,94,0.01,,,0.00,WUHU216HW,2013-01-14 09:40:00,
2013-01-14 05:00:00,40.9,39.5,29.64,North,0,0.0,0.0,95,0.01,,,0.01,WUHU216HW,2013-01-14 10:00:00,
2013-01-14 05:05:00,40.9,39.5,29.64,North,0,0.0,0.0,95,0.01,,,0.01,WUHU216HW,2013-01-14 10:05:00,
2013-01-14 05:10:00,41.0,39.7,29.65,North,0,0.0,0.0,95,0.01,,,0.01,WUHU216HW,2013-01-14 10:10:00,
2013-01-14 05:15:00,41.0,39.7,29.66,North,0,0.0,0.0,95,0.01,,,0.01,WUHU216HW,2013-01-14 10:15:00,
2013-01-14 05:20:00,41.0,39.7,29.67,North,0,0.0,0.0,95,0.01,,,0.01,WUHU216HW,2013-01-14 10:20:00,
2013-01-14 05:25:00,41.6,40.2,29.67,North,0,0.0,0.0,95,0.01,,,0.01,WUHU216HW,2013-01-14 10:25:00,
2013-01-14 05:30:00,41.6,40.2,29.65,North,0,0.0,0.0,95,0.01,,,0.01,WUHU216HW,2013-01-14 10:30:00,
2013-01-14 05:35:00,41.8,40.4,29.66,North,0,0.0,0.0,95,0.00,,,0.01,WUHU216HW,2013-01-14 10:35:00,
2013-01-14 05:40:00,41.8,40.4,29.66,North,0,0.0,0.0,95,0.00,,,0.01,WUHU216HW,2013-01-14 10:40:00,
2013-01-14 06:00:00,41.6,40.2,29.67,North,0,0.0,0.0,95,0.00,,,0.01,WUHU216HW,2013-01-14 11:00:00,
2013-01-14 06:05:00,41.6,40.2,29.68,North,0,0.0,0.0,95,0.00,,,0.01,WUHU216HW,2013-01-14 11:05:00,
2013-01-14 06:10:00,41.4,40.1,29.67,North,0,0.0,0.0,95,0.00,,,0.01,WUHU216HW,2013-01-14 11:10:00,
2013-01-14 06:15:00,41.2,39.9,29.66,North,0,0.0,0.0,95,0.00,,,0.01,WUHU216HW,2013-01-14 11:15:00,
2013-01-14 06:20:00,41.4,40.1,29.66,North,0,0.0,0.0,95,0.00,,,0.01,WUHU216HW,2013-01-14 11:20:00,
2013-01-14 06:25:00,41.4,40.1,29.68,North,0,0.0,0.0,95,0.00,,,0.01,WUHU216HW,2013-01-14 11:25:00,
2013-01-14 06:30:00,41.6,40.2,29.69,North,0,0.0,0.0,95,0.00,,,0.01,WUHU216HW,2013-01-14 11:30:00,
2013-01-14 06:35:00,41.8,40.4,29.69,North,0,0.0,0.0,95,0.00,,,0.01,WUHU216HW,2013-01-14 11:35:00,
2013-01-14 06:40:00,41.8,40.4,29.69,North,0,0.0,0.0,95,0.00,,,0.01,WUHU216HW,2013-01-14 11:40:00,
2013-01-14 07:00:00,40.9,39.5,29.68,North,0,0.0,0.0,95,0.00,,,0.01,WUHU216HW,2013-01-14 12:00:00,
2013-01-14 07:05:00,40.9,39.5,29.68,North,0,0.0,0.0,95,0.00,,,0.01,WUHU216HW,2013-01-14 12:05:00,
2013-01-14 07:10:00,40.9,39.5,29.69,North,0,0.0,0.0,95,0.00,,,0.01,WUHU216HW,2013-01-14 12:10:00,
2013-01-14 07:15:00,40.9,39.5,29.69,North,0,0.0,0.0,95,0.00,,,0.01,WUHU216HW,2013-01-14 12:15:00,
2013-01-14 07:20:00,40.9,39.5,29.70,North,0,0.0,0.0,95,0.00,,,0.01,WUHU216HW,2013-01-14 12:20:00,
2013-01-14 07:25:00,40.7,39.3,29.70,North,0,0.0,0.0,95,0.00,,,0.01,WUHU216HW,2013-01-14 12:25:00,
2013-01-14 07:30:00,40.7,39.3,29.71,North,0,0.0,0.0,95,0.00,,,0.01,WUHU216HW,2013-01-14 12:30:00,
2013-01-14 07:35:00,40.7,39.3,29.71,North,0,0.0,0.0,95,0.00,,,0.01,WUHU216HW,2013-01-14 12:35:00,
2013-01-14 07:40:00,40.7,39.3,29.71,North,0,0.0,0.0,95,0.00,,,0.01,WUHU216HW,2013-01-14 12:40:00,
2013-01-14 07:45:00,40.7,39.3,29.71,North,0,0.0,0.0,95,0.00,,,0.01,WUHU216HW,2013-01-14 12:45:00,
2013-01-14 08:00:00,40.9,39.5,29.72,North,0,0.0,0.0,95,0.00,,,0.01,WUHU216HW,2013-01-14 13:00:00,
2013-01-14 08:05:00,41.0,39.7,29.72,North,0,0.0,0.0,95,0.00,,,0.01,WUHU216HW,2013-01-14 13:05:00,
2013-01-14 08:10:00,41.4,40.1,29.72,North,0,0.0,0.0,95,0.00,,,0.01,WUHU216HW,2013-01-14 13:10:00,
2013-01-14 08:15:00,41.6,40.2,29.73,North,0,0.0,0.0,95,0.00,,,0.01,WUHU216HW,2013-01-14 13:15:00,
2013-01-14 08:20:00,41.6,40.2,29.74,North,0,0.0,0.0,95,0.00,,,0.01,WUHU216HW,2013-01-14 13:20:00,
2013-01-14 08:25:00,41.4,40.1,29.74,North,0,0.0,0.0,95,0.00,,,0.01,WUHU216HW,2013-01-14 13:25:00,
2013-01-14 08:30:00,41.4,40.1,29.74,North,0,0.0,0.0,95,0.00,,,0.01,WUHU216HW,2013-01-14 13:30:00,
2013-01-14 08:35:00,41.4,40.1,29.75,North,0,0.0,0.0,95,0.00,,,0.01,WUHU216HW,2013-01-14 13:35:00,
2013-01-14 08:40:00,41.4,40.1,29.75,North,0,0.0,0.0,95,0.00,,,0.01,WUHU216HW,2013-01-14 13:40:00,
2013-01-14 09:00:00,40.5,39.2,29.76,North,0,0.0,0.0,95,0.00,,,0.01,WUHU216HW,2013-01-14 14:00:00,
2013-01-14 09:05:00,40.3,39.0,29.77,North,0,0.0,0.0,95,0.00,,,0.01,WUHU216HW,2013-01-14 14:05:00,
2013-01-14 09:10:00,40.5,39.4,29.77,North,0,0.0,0.0,96,0.00,,,0.01,WUHU216HW,2013-01-14 14:10:00,
2013-01-14 09:15:00,40.7,39.3,29.77,North,0,0.0,0.0,95,0.00,,,0.01,WUHU216HW,2013-01-14 14:15:00,
2013-01-14 09:20:00,40.7,39.3,29.77,North,0,0.0,0.0,95,0.00,,,0.01,WUHU216HW,2013-01-14 14:20:00,
2013-01-14 09:25:00,40.9,39.5,29.77,North,0,0.0,0.0,95,0.00,,,0.01,WUHU216HW,2013-01-14 14:25:00,
2013-01-14 09:30:00,41.0,39.7,29.77,North,0,0.0,0.0,95,0.00,,,0.01,WUHU216HW,2013-01-14 14:30:00,
2013-01-14 09:33:00,41.0,40.0,29.76,North,0,0.0,0.0,96,0.00,,,0.01,WUHU216HW,2013-01-14 14:33:00,
2013-01-14 09:35:00,41.0,40.0,29.76,North,0,0.0,0.0,96,0.00,,,0.01,WUHU216HW,2013-01-14 14:35:00,
2013-01-14 09:40:00,41.0,40.0,29.76,North,0,0.0,0.0,96,0.00,,,0.01,WUHU216HW,2013-01-14 14:40:00,
2013-01-14 10:00:00,42.1,40.8,29.77,North,0,0.0,0.0,95,0.00,,,0.01,WUHU216HW,2013-01-14 15:00:00,
2013-01-14 10:05:00,42.3,41.0,29.77,North,0,0.0,0.0,95,0.00,,,0.01,WUHU216HW,2013-01-14 15:05:00,
2013-01-14 10:10:00,42.5,41.1,29.76,North,0,0.0,0.0,95,0.00,,,0.01,WUHU216HW,2013-01-14 15:10:00,
2013-01-14 10:15:00,43.0,41.7,29.77,North,0,0.0,0.0,95,0.00,,,0.01,WUHU216HW,2013-01-14 15:15:00,
2013-01-14 10:20:00,43.4,42.0,29.76,North,0,0.0,0.0,95,0.00,,,0.01,WUHU216HW,2013-01-14 15:20:00,
2013-01-14 10:25:00,43.6,42.2,29.76,North,0,0.0,0.0,95,0.00,,,0.01,WUHU216HW,2013-01-14 15:25:00,
2013-01-14 10:30:00,43.6,42.2,29.77,North,0,0.0,0.0,95,0.00,,,0.01,WUHU216HW,2013-01-14 15:30:00,
2013-01-14 10:35:00,43.7,42.4,29.76,North,0,0.0,0.0,95,0.00,,,0.01,WUHU216HW,2013-01-14 15:35:00,
2013-01-14 10:40:00,43.9,42.6,29.77,North,0,0.0,0.0,95,0.00,,,0.01,WUHU216HW,2013-01-14 15:40:00,
2013-01-14 10:45:00,43.9,42.6,29.77,North,0,0.0,0.0,95,0.00,,,0.01,WUHU216HW,2013-01-14 15:45:00,
2013-01-14 11:00:00,45.5,44.2,29.77,North,0,0.0,0.0,95,0.00,,,0.01,WUHU216HW,2013-01-14 16:00:00,
2013-01-14 11:05:00,46.1,44.7,29.76,North,0,0.0,0.0,95,0.00,,,0.01,WUHU216HW,2013-01-14 16:05:00,
2013-01-14 11:10:00,46.4,45.1,29.76,North,0,0.0,0.0,95,0.00,,,0.01,WUHU216HW,2013-01-14 16:10:00,
2013-01-14 11:15:00,46.1,44.7,29.76,North,0,0.0,0.0,95,0.00,,,0.01,WUHU216HW,2013-01-14 16:15:00,
2013-01-14 11:20:00,46.4,45.1,29.76,North,0,0.0,0.0,95,0.00,,,0.01,WUHU216HW,2013-01-14 16:20:00,
2013-01-14 11:25:00,47.3,46.3,29.76,North,0,0.0,0.0,96,0.00,,,0.01,WUHU216HW,2013-01-14 16:25:00,
2013-01-14 11:30:00,47.2,46.1,29.76,North,0,0.0,0.0,96,0.00,,,0.01,WUHU216HW,2013-01-14 16:30:00,
2013-01-14 11:35:00,47.9,46.8,29.77,North,0,0.0,0.0,96,0.00,,,0.01,WUHU216HW,2013-01-14 16:35:00,
2013-01-14 11:40:00,47.9,46.8,29.77,North,0,0.0,0.0,96,0.00,,,0.01,WUHU216HW,2013-01-14 16:40:00,
2013-01-14 12:00:00,50.6,49.4,29.78,North,0,0.0,0.0,96,0.00,,,0.01,WUHU216HW,2013-01-14 17:00:00,
2013-01-14 12:05:00,50.9,49.5,29.78,North,0,0.0,0.0,95,0.00,,,0.01,WUHU216HW,2013-01-14 17:05:00,
2013-01-14 12:10:00,52.2,50.5,29.78,North,0,0.0,0.0,94,0.00,,,0.01,WUHU216HW,2013-01-14 17:10:00,
2013-01-14 12:15:00,52.9,48.8,29.78,North,0,0.0,0.0,86,0.00,,,0.01,WUHU216HW,2013-01-14 17:15:00,
2013-01-14 12:20:00,53.3,48.6,29.79,North,0,0.0,0.0,84,0.01,,,0.02,WUHU216HW,2013-01-14 17:20:00,
2013-01-14 12:25:00,53.6,48.6,29.79,North,0,0.0,0.0,83,0.01,,,0.02,WUHU216HW,2013-01-14 17:25:00,
2013-01-14 12:30:00,53.6,46.3,29.79,North,0,0.0,0.0,76,0.01,,,0.02,WUHU216HW,2013-01-14 17:30:00,
2013-01-14 12:35:00,54.0,47.4,29.79,North,0,0.0,0.0,78,0.01,,,0.02,WUHU216HW,2013-01-14 17:35:00,
2013-01-14 12:40:00,54.0,45.6,29.79,North,0,0.0,0.0,73,0.01,,,0.02,WUHU216HW,2013-01-14 17:40:00,
2013-01-14 12:46:00,53.5,45.0,29.79,North,0,0.0,0.0,73,0.01,,,0.02,WUHU216HW,2013-01-14 17:46:00,
2013-01-14 12:51:00,52.9,43.8,29.79,North,0,0.0,0.0,71,0.01,,,0.02,WUHU216HW,2013-01-14 17:51:00,
2013-01-14 12:56:00,52.9,43.8,29.79,North,0,0.0,0.0,71,0.01,,,0.02,WUHU216HW,2013-01-14 17:56:00,
2013-01-14 13:01:00,52.7,43.7,29.79,North,0,0.0,0.0,71,0.01,,,0.02,WUHU216HW,2013-01-14 18:01:00,
2013-01-14 13:06:00,52.6,42.8,29.79,North,0,0.0,0.0,69,0.01,,,0.02,WUHU216HW,2013-01-14 18:06:00,
2013-01-14 13:11:00,52.7,43.3,29.80,North,0,0.0,0.0,70,0.01,,,0.02,WUHU216HW,2013-01-14 18:11:00,
2013-01-14 13:16:00,52.7,43.7,29.80,North,0,0.0,0.0,71,0.01,,,0.02,WUHU216HW,2013-01-14 18:16:00,
2013-01-14 13:21:00,52.9,42.7,29.80,North,0,0.0,0.0,68,0.00,,,0.02,WUHU216HW,2013-01-14 18:21:00,
2013-01-14 13:26:00,52.9,42.7,29.81,North,0,0.0,0.0,68,0.00,,,0.02,WUHU216HW,2013-01-14 18:26:00,
2013-01-14 13:31:00,52.6,41.5,29.81,North,0,0.0,0.0,66,0.00,,,0.02,WUHU216HW,2013-01-14 18:31:00,
2013-01-14 13:36:00,52.2,40.8,29.81,North,0,0.0,0.0,65,0.00,,,0.02,WUHU216HW,2013-01-14 18:36:00,
2013-01-14 13:41:00,52.2,40.8,29.81,North,0,0.0,0.0,65,0.00,,,0.02,WUHU216HW,2013-01-14 18:41:00,
2013-01-14 14:00:00,53.6,41.3,29.83,North,0,0.0,0.0,63,0.00,,,0.02,WUHU216HW,2013-01-14 19:00:00,
2013-01-14 14:05:00,53.6,40.5,29.83,North,0,0.0,0.0,61,0.00,,,0.02,WUHU216HW,2013-01-14 19:05:00,
2013-01-14 14:10:00,53.6,41.8,29.83,North,0,0.0,0.0,64,0.00,,,0.02,WUHU216HW,2013-01-14 19:10:00,
2013-01-14 14:15:00,53.6,41.3,29.84,North,0,0.0,0.0,63,0.00,,,0.02,WUHU216HW,2013-01-14 19:15:00,
2013-01-14 14:20:00,53.5,40.8,29.85,North,0,0.0,0.0,62,0.00,,,0.02,WUHU216HW,2013-01-14 19:20:00,
2013-01-14 14:25:00,53.3,41.0,29.85,North,0,0.0,0.0,63,0.00,,,0.02,WUHU216HW,2013-01-14 19:25:00,
2013-01-14 14:30:00,53.3,40.6,29.85,North,0,0.0,0.0,62,0.00,,,0.02,WUHU216HW,2013-01-14 19:30:00,
2013-01-14 14:35:00,53.3,40.6,29.85,North,0,0.0,0.0,62,0.00,,,0.02,WUHU216HW,2013-01-14 19:35:00,
2013-01-14 14:40:00,53.3,40.6,29.85,North,0,0.0,0.0,62,0.00,,,0.02,WUHU216HW,2013-01-14 19:40:00,
2013-01-14 15:00:00,52.2,38.7,29.86,North,0,0.0,0.0,60,0.00,,,0.02,WUHU216HW,2013-01-14 20:00:00,
2013-01-14 15:05:00,51.7,38.2,29.86,North,0,0.0,0.0,60,0.00,,,0.02,WUHU216HW,2013-01-14 20:05:00,
2013-01-14 15:10:00,51.5,38.4,29.87,North,0,0.0,0.0,61,0.00,,,0.02,WUHU216HW,2013-01-14 20:10:00,
2013-01-14 15:15:00,51.5,38.9,29.87,North,0,0.0,0.0,62,0.00,,,0.02,WUHU216HW,2013-01-14 20:15:00,
2013-01-14 15:20:00,51.5,38.9,29.87,North,0,0.0,0.0,62,0.00,,,0.02,WUHU216HW,2013-01-14 20:20:00,
2013-01-14 15:25:00,51.1,37.7,29.87,North,0,0.0,0.0,60,0.00,,,0.02,WUHU216HW,2013-01-14 20:25:00,
2013-01-14 15:30:00,50.2,37.7,29.88,North,0,0.0,0.0,62,0.00,,,0.02,WUHU216HW,2013-01-14 20:30:00,
2013-01-14 15:35:00,49.9,37.4,29.88,North,0,0.0,0.0,62,0.00,,,0.02,WUHU216HW,2013-01-14 20:35:00,
2013-01-14 15:40:00,49.3,37.3,29.88,North,0,0.0,0.0,63,0.00,,,0.02,WUHU216HW,2013-01-14 20:40:00,
2013-01-14 15:45:00,49.1,37.4,29.89,North,0,0.0,0.0,64,0.00,,,0.02,WUHU216HW,2013-01-14 20:45:00,
2013-01-14 15:50:00,48.8,36.7,29.89,North,0,0.0,0.0,63,0.00,,,0.02,WUHU216HW,2013-01-14 20:50:00,
2013-01-14 15:55:00,48.6,36.5,29.89,North,0,0.0,0.0,63,0.00,,,0.02,WUHU216HW,2013-01-14 20:55:00,
2013-01-14 16:01:00,48.2,36.3,29.89,North,0,0.0,0.0,63,0.00,,,0.02,WUHU216HW,2013-01-14 21:01:00,
2013-01-14 16:06:00,47.7,35.7,29.88,North,0,0.0,0.0,63,0.00,,,0.02,WUHU216HW,2013-01-14 21:06:00,
2013-01-14 16:11:00,47.2,35.2,29.88,North,0,0.0,0.0,63,0.00,,,0.02,WUHU216HW,2013-01-14 21:11:00,
2013-01-14 16:16:00,46.8,34.8,29.89,North,0,0.0,0.0,63,0.00,,,0.02,WUHU216HW,2013-01-14 21:16:00,
2013-01-14 16:21:00,46.4,34.9,29.89,North,0,0.0,0.0,64,0.00,,,0.02,WUHU216HW,2013-01-14 21:21:00,
2013-01-14 16:26:00,46.1,34.9,29.89,North,0,0.0,0.0,65,0.00,,,0.02,WUHU216HW,2013-01-14 21:26:00,
2013-01-14 16:31:00,45.7,34.6,29.89,North,0,0.0,0.0,65,0.00,,,0.02,WUHU216HW,2013-01-14 21:31:00,
2013-01-14 16:36:00,45.5,34.5,29.90,North,0,0.0,0.0,65,0.00,,,0.02,WUHU216HW,2013-01-14 21:36:00,
2013-01-14 16:41:00,45.5,34.5,29.90,North,0,0.0,0.0,65,0.00,,,0.02,WUHU216HW,2013-01-14 21:41:00,
2013-01-14 17:00:00,43.7,33.1,29.90,North,0,0.0,0.0,66,0.00,,,0.02,WUHU216HW,2013-01-14 22:00:00,
2013-01-14 17:05:00,43.6,33.3,29.90,North,0,0.0,0.0,67,0.00,,,0.02,WUHU216HW,2013-01-14 22:05:00,
2013-01-14 17:10:00,43.2,33.0,29.89,North,0,0.0,0.0,67,0.00,,,0.02,WUHU216HW,2013-01-14 22:10:00,
2013-01-14 17:15:00,42.8,33.0,29.90,North,0,0.0,0.0,68,0.00,,,0.02,WUHU216HW,2013-01-14 22:15:00,
2013-01-14 17:20:00,42.5,32.7,29.90,North,0,0.0,0.0,68,0.00,,,0.02,WUHU216HW,2013-01-14 22:20:00,
2013-01-14 17:25:00,42.1,32.8,29.90,North,0,0.0,0.0,69,0.00,,,0.02,WUHU216HW,2013-01-14 22:25:00,
2013-01-14 17:30:00,41.8,32.0,29.90,North,0,0.0,0.0,68,0.00,,,0.02,WUHU216HW,2013-01-14 22:30:00,
2013-01-14 17:35:00,41.2,31.9,29.90,North,0,0.0,0.0,69,0.00,,,0.02,WUHU216HW,2013-01-14 22:35:00,
2013-01-14 17:40:00,40.7,31.7,29.89,North,0,0.0,0.0,70,0.00,,,0.02,WUHU216HW,2013-01-14 22:40:00,
2013-01-14 17:45:00,40.3,31.3,29.89,North,0,0.0,0.0,70,0.00,,,0.02,WUHU216HW,2013-01-14 22:45:00,
2013-01-14 17:50:00,40.0,31.3,29.89,North,0,0.0,0.0,71,0.00,,,0.02,WUHU216HW,2013-01-14 22:50:00,
2013-01-14 17:56:00,40.0,31.3,29.90,North,0,0.0,0.0,71,0.00,,,0.02,WUHU216HW,2013-01-14 22:56:00,
2013-01-14 18:01:00,39.6,31.0,29.90,North,0,0.0,0.0,71,0.00,,,0.02,WUHU216HW,2013-01-14 23:01:00,
2013-01-14 18:06:00,39.4,30.8,29.90,North,0,0.0,0.0,71,0.00,,,0.02,WUHU216HW,2013-01-14 23:06:00,
2013-01-14 18:11:00,39.2,30.6,29.91,North,0,0.0,0.0,71,0.00,,,0.02,WUHU216HW,2013-01-14 23:11:00,
2013-01-14 18:16:00,38.9,30.6,29.91,North,0,0.0,0.0,72,0.00,,,0.02,WUHU216HW,2013-01-14 23:16:00,
2013-01-14 18:21:00,38.5,30.2,29.91,North,0,0.0,0.0,72,0.00,,,0.02,WUHU216HW,2013-01-14 23:21:00,
2013-01-14 18:26:00,38.0,30.1,29.92,North,0,0.0,0.0,73,0.00,,,0.02,WUHU216HW,2013-01-14 23:26:00,
2013-01-14 18:31:00,37.8,30.0,29.91,North,0,0.0,0.0,73,0.00,,,0.02,WUHU216HW,2013-01-14 23:31:00,
2013-01-14 18:36:00,37.6,30.1,29.91,North,0,0.0,0.0,74,0.00,,,0.02,WUHU216HW,2013-01-14 23:36:00,
2013-01-14 18:41:00,37.4,29.9,29.92,North,0,0.0,0.0,74,0.00,,,0.02,WUHU216HW,2013-01-14 23:41:00,
2013-01-14 18:46:00,37.6,30.1,29.93,North,0,0.0,0.0,74,0.00,,,0.02,WUHU216HW,2013-01-14 23:46:00,
2013-01-14 18:51:00,37.8,30.2,29.93,North,0,0.0,0.0,74,0.00,,,0.02,WUHU216HW,2013-01-14 23:51:00,
2013-01-14 18:56:00,37.4,29.9,29.93,North,0,0.0,0.0,74,0.00,,,0.02,WUHU216HW,2013-01-14 23:56:00,
2013-01-14 19:01:00,37.3,30.1,29.94,North,0,0.0,0.0,75,0.00,,,0.02,WUHU216HW,2013-01-15 00:01:00,
2013-01-14 19:06:00,37.1,29.9,29.95,North,0,0.0,0.0,75,0.00,,,0.02,WUHU216HW,2013-01-15 00:06:00,
2013-01-14 19:11:00,37.1,29.9,29.95,North,0,0.0,0.0,75,0.00,,,0.02,WUHU216HW,2013-01-15 00:11:00,
2013-01-14 19:16:00,36.9,29.7,29.95,North,0,0.0,0.0,75,0.00,,,0.02,WUHU216HW,2013-01-15 00:16:00,
2013-01-14 19:22:00,37.1,29.9,29.95,North,0,0.0,0.0,75,0.00,,,0.02,WUHU216HW,2013-01-15 00:22:00,
2013-01-14 19:27:00,37.8,30.0,29.95,North,0,0.0,0.0,73,0.00,,,0.02,WUHU216HW,2013-01-15 00:27:00,
2013-01-14 19:32:00,38.2,30.2,29.96,North,0,0.0,0.0,73,0.00,,,0.02,WUHU216HW,2013-01-15 00:32:00,
2013-01-14 19:37:00,38.2,30.0,29.96,North,0,0.0,0.0,72,0.00,,,0.02,WUHU216HW,2013-01-15 00:37:00,
2013-01-14 19:42:00,38.2,30.0,29.96,North,0,0.0,0.0,72,0.00,,,0.02,WUHU216HW,2013-01-15 00:42:00,
2013-01-14 19:47:00,38.2,30.0,29.97,North,0,0.0,0.0,72,0.00,,,0.02,WUHU216HW,2013-01-15 00:47:00,
2013-01-14 19:52:00,38.0,29.8,29.97,North,0,0.0,0.0,72,0.00,,,0.02,WUHU216HW,2013-01-15 00:52:00,
2013-01-14 19:57:00,38.0,29.8,29.97,North,0,0.0,0.0,72,0.00,,,0.02,WUHU216HW,2013-01-15 00:57:00,
2013-01-14 20:02:00,37.8,29.3,29.97,North,0,0.0,0.0,71,0.00,,,0.02,WUHU216HW,2013-01-15 01:02:00,
2013-01-14 20:07:00,38.0,29.4,29.97,North,0,0.0,0.0,71,0.00,,,0.02,WUHU216HW,2013-01-15 01:07:00,
2013-01-14 20:12:00,37.8,29.3,29.97,North,0,0.0,0.0,71,0.00,,,0.02,WUHU216HW,2013-01-15 01:12:00,
2013-01-14 20:17:00,37.8,29.3,29.97,North,0,0.0,0.0,71,0.00,,,0.02,WUHU216HW,2013-01-15 01:17:00,
2013-01-14 20:22:00,37.8,29.0,29.97,North,0,0.0,0.0,70,0.00,,,0.02,WUHU216HW,2013-01-15 01:22:00,
2013-01-14 20:27:00,37.6,28.8,29.97,North,0,0.0,0.0,70,0.00,,,0.02,WUHU216HW,2013-01-15 01:27:00,
2013-01-14 20:32:00,37.4,28.6,29.98,North,0,0.0,0.0,70,0.00,,,0.02,WUHU216HW,2013-01-15 01:32:00,
2013-01-14 20:38:00,37.4,28.6,29.97,North,0,0.0,0.0,70,0.00,,,0.02,WUHU216HW,2013-01-15 01:38:00,
2013-01-14 20:43:00,37.1,28.3,29.97,North,0,0.0,0.0,70,0.00,,,0.02,WUHU216HW,2013-01-15 01:43:00,
2013-01-14 20:48:00,37.1,28.3,29.97,North,0,0.0,0.0,70,0.00,,,0.02,WUHU216HW,2013-01-15 01:48:00,
2013-01-14 20:53:00,36.9,28.1,29.98,North,0,0.0,0.0,70,0.00,,,0.02,WUHU216HW,2013-01-15 01:53:00,
2013-01-14 20:58:00,36.7,27.9,29.98,North,0,0.0,0.0,70,0.00,,,0.02,WUHU216HW,2013-01-15 01:58:00,
2013-01-14 21:03:00,36.5,27.7,29.97,North,0,0.0,0.0,70,0.00,,,0.02,WUHU216HW,2013-01-15 02:03:00,
2013-01-14 21:08:00,36.5,27.7,29.98,North,0,0.0,0.0,70,0.00,,,0.02,WUHU216HW,2013-01-15 02:08:00,
2013-01-14 21:13:00,36.4,27.5,29.98,North,0,0.0,0.0,70,0.00,,,0.02,WUHU216HW,2013-01-15 02:13:00,
2013-01-14 21:18:00,36.4,27.5,29.99,North,0,0.0,0.0,70,0.00,,,0.02,WUHU216HW,2013-01-15 02:18:00,
2013-01-14 21:23:00,36.4,27.9,29.98,North,0,0.0,0.0,71,0.00,,,0.02,WUHU216HW,2013-01-15 02:23:00,
2013-01-14 21:28:00,36.4,27.5,29.98,North,0,0.0,0.0,70,0.00,,,0.02,WUHU216HW,2013-01-15 02:28:00,
2013-01-14 21:33:00,36.2,27.7,29.98,North,0,0.0,0.0,71,0.00,,,0.02,WUHU216HW,2013-01-15 02:33:00,
2013-01-14 21:39:00,36.2,27.4,29.99,North,0,0.0,0.0,70,0.00,,,0.02,WUHU216HW,2013-01-15 02:39:00,
2013-01-14 21:44:00,36.2,27.4,29.99,North,0,0.0,0.0,70,0.00,,,0.02,WUHU216HW,2013-01-15 02:44:00,
2013-01-14 21:49:00,36.2,27.4,29.99,North,0,0.0,0.0,70,0.00,,,0.02,WUHU216HW,2013-01-15 02:49:00,
2013-01-14 21:54:00,36.0,27.2,29.99,North,0,0.0,0.0,70,0.00,,,0.02,WUHU216HW,2013-01-15 02:54:00,
2013-01-14 21:59:00,36.0,27.2,29.99,North,0,0.0,0.0,70,0.00,,,0.02,WUHU216HW,2013-01-15 02:59:00,
2013-01-14 22:04:00,35.8,27.0,29.99,North,0,0.0,0.0,70,0.00,,,0.02,WUHU216HW,2013-01-15 03:04:00,
2013-01-14 22:09:00,35.8,27.0,30.00,North,0,0.0,0.0,70,0.00,,,0.02,WUHU216HW,2013-01-15 03:09:00,
2013-01-14 22:14:00,35.8,27.0,30.00,North,0,0.0,0.0,70,0.00,,,0.02,WUHU216HW,2013-01-15 03:14:00,
2013-01-14 22:19:00,35.6,26.8,30.00,North,0,0.0,0.0,70,0.00,,,0.02,WUHU216HW,2013-01-15 03:19:00,
2013-01-14 22:24:00,35.8,27.0,30.00,North,0,0.0,0.0,70,0.00,,,0.02,WUHU216HW,2013-01-15 03:24:00,
2013-01-14 22:29:00,35.6,26.8,30.00,North,0,0.0,0.0,70,0.00,,,0.02,WUHU216HW,2013-01-15 03:29:00,
2013-01-14 22:34:00,35.6,27.2,30.00,North,0,0.0,0.0,71,0.00,,,0.02,WUHU216HW,2013-01-15 03:34:00,
2013-01-14 22:39:00,35.6,27.2,30.00,North,0,0.0,0.0,71,0.00,,,0.02,WUHU216HW,2013-01-15 03:39:00,
2013-01-14 23:00:00,35.1,26.7,30.00,North,0,0.0,0.0,71,0.00,,,0.02,WUHU216HW,2013-01-15 04:00:00,
2013-01-14 23:05:00,35.1,26.7,30.00,North,0,0.0,0.0,71,0.00,,,0.02,WUHU216HW,2013-01-15 04:05:00,
2013-01-14 23:10:00,34.9,26.5,30.00,North,0,0.0,0.0,71,0.00,,,0.02,WUHU216HW,2013-01-15 04:10:00,
2013-01-14 23:15:00,34.7,26.6,30.01,North,0,0.0,0.0,72,0.00,,,0.02,WUHU216HW,2013-01-15 04:15:00,
2013-01-14 23:20:00,34.4,26.6,30.02,North,0,0.0,0.0,73,0.00,,,0.02,WUHU216HW,2013-01-15 04:20:00,
2013-01-14 23:25:00,34.2,26.4,30.02,North,0,0.0,0.0,73,0.00,,,0.02,WUHU216HW,2013-01-15 04:25:00,
2013-01-14 23:30:00,34.2,26.4,30.02,North,0,0.0,0.0,73,0.00,,,0.02,WUHU216HW,2013-01-15 04:30:00,
2013-01-14 23:33:00,34.2,26.4,30.02,North,0,0.0,0.0,73,0.00,,,0.02,WUHU216HW,2013-01-15 04:33:00,
2013-01-14 23:35:00,34.2,26.4,30.02,North,0,0.0,0.0,73,0.00,,,0.02,WUHU216HW,2013-01-15 04:35:00,
2013-01-14 23:40:00,34.2,26.4,30.02,North,0,0.0,0.0,73,0.00,,,0.02,WUHU216HW,2013-01-15 04:40:00,